createdAt,value
2018-03-28T00:00:06.345Z,15.60
2018-03-28T00:02:33.837Z,13.77
2018-03-28T00:05:01.295Z,15.03
2018-03-28T00:07:28.762Z,14.20
2018-03-28T00:09:56.226Z,18.83
2018-03-28T00:12:23.682Z,16.80
2018-03-28T00:14:51.427Z,16.80
2018-03-28T00:17:18.897Z,16.23
2018-03-28T00:19:46.367Z,16.37
2018-03-28T00:22:13.822Z,17.50
2018-03-28T00:24:41.286Z,16.13
2018-03-28T00:27:08.744Z,16.27
2018-03-28T00:29:36.218Z,17.13
2018-03-28T00:32:04.846Z,14.67
2018-03-28T00:34:32.315Z,15.00
2018-03-28T00:37:00.070Z,14.17
2018-03-28T00:39:27.522Z,16.10
2018-03-28T00:41:54.990Z,16.10
2018-03-28T00:44:22.460Z,15.73
2018-03-28T00:46:49.934Z,15.27
2018-03-28T00:49:17.399Z,17.83
2018-03-28T00:51:44.867Z,14.83
2018-03-28T00:54:12.338Z,14.70
2018-03-28T00:56:40.561Z,17.37
2018-03-28T00:59:08.310Z,16.80
2018-03-28T01:01:36.009Z,17.07
2018-03-28T01:04:03.470Z,17.67
2018-03-28T01:06:31.178Z,15.53
2018-03-28T01:08:58.650Z,16.07
2018-03-28T01:11:26.113Z,18.83
2018-03-28T01:13:53.875Z,14.97
2018-03-28T01:16:21.375Z,16.17
2018-03-28T01:18:49.092Z,16.97
2018-03-28T01:21:16.558Z,15.87
2018-03-28T01:23:44.033Z,15.73
2018-03-28T01:26:11.770Z,18.23
2018-03-28T01:28:39.533Z,17.80
2018-03-28T01:31:06.991Z,17.10
2018-03-28T01:33:34.462Z,15.23
2018-03-28T01:36:01.918Z,15.83
2018-03-28T01:38:29.387Z,15.77
2018-03-28T01:40:57.236Z,16.10
2018-03-28T01:43:24.993Z,18.37
2018-03-28T01:45:52.459Z,14.70
2018-03-28T01:48:19.929Z,15.07
2018-03-28T01:50:47.674Z,14.70
2018-03-28T01:53:15.142Z,15.80
2018-03-28T01:55:42.603Z,15.70
2018-03-28T01:58:10.069Z,14.73
2018-03-28T02:00:37.534Z,16.40
2018-03-28T02:03:05.026Z,14.70
2018-03-28T02:05:33.266Z,14.87
2018-03-28T02:08:01.511Z,16.87
2018-03-28T02:10:28.994Z,15.97
2018-03-28T02:12:56.459Z,13.23
2018-03-28T02:15:23.927Z,14.00
2018-03-28T02:17:51.706Z,15.43
2018-03-28T02:20:19.116Z,15.67
2018-03-28T02:22:46.594Z,16.00
2018-03-28T02:25:14.328Z,14.10
2018-03-28T02:27:41.794Z,14.60
2018-03-28T02:30:09.258Z,11.77
2018-03-28T02:32:36.781Z,14.30
2018-03-28T02:35:04.251Z,12.23
2018-03-28T02:37:31.715Z,14.07
2018-03-28T02:39:59.179Z,13.13
2018-03-28T02:42:26.642Z,12.57
2018-03-28T02:44:54.111Z,12.60
2018-03-28T02:47:21.591Z,12.20
2018-03-28T02:49:49.467Z,11.80
2018-03-28T02:52:17.994Z,14.87
2018-03-28T02:54:45.467Z,12.57
2018-03-28T02:57:12.931Z,13.37
2018-03-28T02:59:40.408Z,11.13
2018-03-28T03:02:07.882Z,11.00
2018-03-28T03:04:36.109Z,12.20
2018-03-28T03:07:03.582Z,12.73
2018-03-28T03:09:31.051Z,12.13
2018-03-28T03:11:58.533Z,10.57
2018-03-28T03:14:27.056Z,10.50
2018-03-28T03:16:54.522Z,11.20
2018-03-28T03:19:21.977Z,10.60
2018-03-28T03:21:49.441Z,11.97
2018-03-28T03:24:17.190Z,11.27
2018-03-28T03:26:44.655Z,10.37
2018-03-28T03:29:12.116Z,10.37
2018-03-28T03:31:39.592Z,12.00
2018-03-28T03:34:07.058Z,10.57
2018-03-28T03:36:34.522Z,10.17
2018-03-28T03:39:01.983Z,11.53
2018-03-28T03:41:29.449Z,12.57
2018-03-28T03:43:56.907Z,9.47
2018-03-28T03:46:24.710Z,11.40
2018-03-28T03:48:52.166Z,10.50
2018-03-28T03:51:19.636Z,11.40
2018-03-28T03:53:47.094Z,8.93
2018-03-28T03:56:14.561Z,8.63
2018-03-28T03:58:42.792Z,8.97
2018-03-28T04:01:11.014Z,6.77
2018-03-28T04:03:38.473Z,7.27
2018-03-28T04:06:06.211Z,7.50
2018-03-28T04:08:33.670Z,7.77
2018-03-28T04:11:01.127Z,7.50
2018-03-28T04:13:28.991Z,7.87
2018-03-28T04:15:56.450Z,9.90
2018-03-28T04:18:23.909Z,5.93
2018-03-28T04:20:51.369Z,6.63
2018-03-28T04:23:18.839Z,9.13
2018-03-28T04:25:46.302Z,7.47
2018-03-28T04:28:13.756Z,6.60
2018-03-28T04:30:41.215Z,6.30
2018-03-28T04:33:08.881Z,6.43
2018-03-28T04:35:36.350Z,7.07
2018-03-28T04:38:03.814Z,6.87
2018-03-28T04:40:31.274Z,8.57
2018-03-28T04:42:58.758Z,6.80
2018-03-28T04:45:26.983Z,10.10
2018-03-28T04:47:55.202Z,5.30
2018-03-28T04:50:23.418Z,7.87
2018-03-28T04:52:50.878Z,6.80
2018-03-28T04:55:18.341Z,3.77
2018-03-28T04:57:45.799Z,4.23
2018-03-28T05:00:13.267Z,3.90
2018-03-28T05:02:40.724Z,3.97
2018-03-28T05:05:08.179Z,3.37
2018-03-28T05:07:35.633Z,3.17
2018-03-28T05:10:03.099Z,4.93
2018-03-28T05:12:30.562Z,4.10
2018-03-28T05:14:58.031Z,3.47
2018-03-28T05:17:25.483Z,2.57
2018-03-28T05:19:53.163Z,2.93
2018-03-28T05:22:21.392Z,3.60
2018-03-28T05:24:48.854Z,3.60
2018-03-28T05:27:16.311Z,3.30
2018-03-28T05:29:43.782Z,3.30
2018-03-28T05:32:11.243Z,3.90
2018-03-28T05:34:38.702Z,2.50
2018-03-28T05:37:06.425Z,2.53
2018-03-28T05:39:33.887Z,3.03
2018-03-28T05:42:01.352Z,2.57
2018-03-28T05:44:28.807Z,2.20
2018-03-28T05:46:56.267Z,1.97
2018-03-28T05:49:23.719Z,2.47
2018-03-28T05:51:51.476Z,2.47
2018-03-28T05:54:18.929Z,2.17
2018-03-28T05:56:46.694Z,2.73
2018-03-28T05:59:14.177Z,2.30
2018-03-28T06:01:41.647Z,2.30
2018-03-28T06:04:09.116Z,2.40
2018-03-28T06:06:36.567Z,3.37
2018-03-28T06:09:04.026Z,2.47
2018-03-28T06:11:31.491Z,2.50
2018-03-28T06:13:58.966Z,2.63
2018-03-28T06:16:27.195Z,2.83
2018-03-28T06:18:54.646Z,5.30
2018-03-28T06:21:22.116Z,5.27
2018-03-28T06:23:50.060Z,3.03
2018-03-28T06:26:17.607Z,3.90
2018-03-28T06:28:45.259Z,5.00
2018-03-28T06:31:12.922Z,3.50
2018-03-28T06:33:40.406Z,4.53
2018-03-28T06:36:07.864Z,4.13
2018-03-28T06:38:35.539Z,5.17
2018-03-28T06:41:03.023Z,5.23
2018-03-28T06:43:30.478Z,5.37
2018-03-28T06:45:57.967Z,6.73
2018-03-28T06:48:25.429Z,5.97
2018-03-28T06:50:52.890Z,6.93
2018-03-28T06:53:20.354Z,5.77
2018-03-28T06:55:47.810Z,6.33
2018-03-28T06:58:15.272Z,5.23
2018-03-28T07:00:43.046Z,4.97
2018-03-28T07:03:10.629Z,5.33
2018-03-28T07:05:38.099Z,6.30
2018-03-28T07:08:05.574Z,6.30
2018-03-28T07:10:33.835Z,6.23
2018-03-28T07:13:01.282Z,5.27
2018-03-28T07:15:28.733Z,4.97
2018-03-28T07:17:56.191Z,5.57
2018-03-28T07:20:23.676Z,5.37
2018-03-28T07:22:51.130Z,5.87
2018-03-28T07:25:18.596Z,6.57
2018-03-28T07:27:46.877Z,7.30
2018-03-28T07:30:14.677Z,6.90
2018-03-28T07:32:42.440Z,6.83
2018-03-28T07:35:10.608Z,6.63
2018-03-28T07:37:38.062Z,7.10
2018-03-28T07:40:05.519Z,6.73
2018-03-28T07:42:32.975Z,4.20
2018-03-28T07:45:00.446Z,6.77
2018-03-28T07:47:27.898Z,4.83
2018-03-28T07:49:55.361Z,6.43
2018-03-28T07:52:22.818Z,5.80
2018-03-28T07:54:50.292Z,6.50
2018-03-28T07:57:17.984Z,4.37
2018-03-28T07:59:45.450Z,4.37
2018-03-28T08:02:12.909Z,7.07
2018-03-28T08:04:41.146Z,4.63
2018-03-28T08:07:08.886Z,4.80
2018-03-28T08:09:36.563Z,6.33
2018-03-28T08:12:04.053Z,6.63
2018-03-28T08:14:31.514Z,6.00
2018-03-28T08:16:59.258Z,4.80
2018-03-28T08:19:26.994Z,4.23
2018-03-28T08:21:54.454Z,5.07
2018-03-28T08:24:21.919Z,3.90
2018-03-28T08:26:49.406Z,5.90
2018-03-28T08:29:17.127Z,4.67
2018-03-28T08:31:44.593Z,5.83
2018-03-28T08:34:12.063Z,5.60
2018-03-28T08:36:39.519Z,4.27
2018-03-28T08:39:06.992Z,4.17
2018-03-28T08:41:35.223Z,4.93
2018-03-28T08:44:02.694Z,3.57
2018-03-28T08:46:30.146Z,4.60
2018-03-28T08:48:57.614Z,5.67
2018-03-28T08:51:25.370Z,4.47
2018-03-28T08:53:52.830Z,3.07
2018-03-28T08:56:20.303Z,3.30
2018-03-28T08:58:48.566Z,3.73
2018-03-28T09:01:16.039Z,3.93
2018-03-28T09:03:43.498Z,4.27
2018-03-28T09:06:10.963Z,3.20
2018-03-28T09:08:39.195Z,3.53
2018-03-28T09:11:06.654Z,2.67
2018-03-28T09:13:34.124Z,2.50
2018-03-28T09:16:01.599Z,4.53
2018-03-28T09:18:29.062Z,4.93
2018-03-28T09:21:02.729Z,4.63
2018-03-28T09:23:30.198Z,3.87
2018-03-28T09:25:57.666Z,4.97
2018-03-28T09:28:25.965Z,4.53
2018-03-28T09:30:53.423Z,4.80
2018-03-28T09:33:20.890Z,3.10
2018-03-28T09:35:48.403Z,4.00
2018-03-28T09:38:15.867Z,3.57
2018-03-28T09:40:43.326Z,5.17
2018-03-28T09:43:10.798Z,3.23
2018-03-28T09:45:38.264Z,2.93
2018-03-28T09:48:05.723Z,4.00
2018-03-28T09:50:33.209Z,3.90
2018-03-28T09:53:01.449Z,4.43
2018-03-28T09:55:28.919Z,4.03
2018-03-28T09:57:56.379Z,3.20
2018-03-28T10:00:26.690Z,4.37
2018-03-28T10:02:59.954Z,6.13
2018-03-28T10:05:33.455Z,3.77
2018-03-28T10:08:00.914Z,5.43
2018-03-28T10:10:28.674Z,4.23
2018-03-28T10:12:56.150Z,4.50
2018-03-28T10:15:23.611Z,4.23
2018-03-28T10:17:51.175Z,2.90
2018-03-28T10:20:19.278Z,4.60
2018-03-28T10:22:46.798Z,6.20
2018-03-28T10:25:14.290Z,3.60
2018-03-28T10:27:41.783Z,3.83
2018-03-28T10:30:09.247Z,3.67
2018-03-28T10:32:36.699Z,3.17
2018-03-28T10:35:04.190Z,3.37
2018-03-28T10:37:31.642Z,3.80
2018-03-28T10:39:59.160Z,3.23
2018-03-28T10:42:27.411Z,3.63
2018-03-28T10:44:54.886Z,3.83
2018-03-28T10:47:23.398Z,3.57
2018-03-28T10:49:50.874Z,4.83
2018-03-28T10:52:18.383Z,2.53
2018-03-28T10:54:46.606Z,2.77
2018-03-28T10:57:14.182Z,4.53
2018-03-28T10:59:42.414Z,2.27
2018-03-28T11:02:11.920Z,4.90
2018-03-28T11:04:39.407Z,4.23
2018-03-28T11:07:06.936Z,4.63
2018-03-28T11:09:34.435Z,2.60
2018-03-28T11:12:01.920Z,4.40
2018-03-28T11:14:30.175Z,3.33
2018-03-28T11:16:57.849Z,2.43
2018-03-28T11:19:25.318Z,2.23
2018-03-28T11:21:53.559Z,3.43
2018-03-28T11:24:21.040Z,3.00
2018-03-28T11:26:48.511Z,1.87
2018-03-28T11:29:16.030Z,2.17
2018-03-28T11:31:46.319Z,2.53
2018-03-28T11:34:13.785Z,1.60
2018-03-28T11:36:41.256Z,2.33
2018-03-28T11:39:09.486Z,1.50
2018-03-28T11:41:38.002Z,2.23
2018-03-28T11:44:05.549Z,3.20
2018-03-28T11:46:33.038Z,1.80
2018-03-28T11:49:00.508Z,2.10
2018-03-28T11:51:27.964Z,1.70
2018-03-28T11:53:55.430Z,3.27
2018-03-28T11:56:23.156Z,2.50
2018-03-28T11:58:50.621Z,4.10
2018-03-28T12:01:18.074Z,5.00
2018-03-28T12:03:45.562Z,4.63
2018-03-28T12:06:13.018Z,2.00
2018-03-28T12:08:40.477Z,1.60
2018-03-28T12:11:07.950Z,2.90
2018-03-28T12:13:35.397Z,1.80
2018-03-28T12:16:02.888Z,2.03
2018-03-28T12:18:30.329Z,3.27
2018-03-28T12:20:58.566Z,3.13
2018-03-28T12:23:26.836Z,2.53
2018-03-28T12:25:54.326Z,1.50
2018-03-28T12:28:26.769Z,1.93
2018-03-28T12:30:54.318Z,2.50
2018-03-28T12:33:21.783Z,1.63
2018-03-28T12:35:49.242Z,1.60
2018-03-28T12:38:17.440Z,1.30
2018-03-28T12:40:45.175Z,1.20
2018-03-28T12:43:12.664Z,3.30
2018-03-28T12:45:40.125Z,3.03
2018-03-28T12:48:07.590Z,2.83
2018-03-28T12:50:35.058Z,2.67
2018-03-28T12:53:03.374Z,1.73
2018-03-28T12:55:30.906Z,4.13
2018-03-28T12:57:59.064Z,3.37
2018-03-28T13:00:26.537Z,2.60
2018-03-28T13:02:54.004Z,2.10
2018-03-28T13:05:22.378Z,13.80
2018-03-28T13:07:49.864Z,4.43
2018-03-28T13:10:17.307Z,2.50
2018-03-28T13:12:45.540Z,2.67
2018-03-28T13:15:13.014Z,2.40
2018-03-28T13:17:41.258Z,16.27
2018-03-28T13:20:08.735Z,2.37
2018-03-28T14:45:48.012Z,6.47
2018-03-28T14:48:16.292Z,3.53
2018-03-28T14:50:43.767Z,5.30
2018-03-28T14:53:12.282Z,4.07
2018-03-28T14:55:39.747Z,4.70
2018-03-28T14:58:07.210Z,4.00
2018-03-28T15:00:34.674Z,3.90
2018-03-28T15:03:02.181Z,5.00
2018-03-28T15:05:32.911Z,4.87
2018-03-28T15:08:01.145Z,3.37
2018-03-28T15:10:28.618Z,3.20
2018-03-28T15:12:56.347Z,3.13
2018-03-28T15:15:23.840Z,4.13
2018-03-28T15:17:51.298Z,5.30
2018-03-28T15:20:18.768Z,5.90
2018-03-28T15:22:46.837Z,3.50
2018-03-28T15:25:14.594Z,3.00
2018-03-28T15:27:42.081Z,4.20
2018-03-28T15:30:10.316Z,6.17
2018-03-28T15:32:38.105Z,7.47
2018-03-28T15:35:05.813Z,3.80
2018-03-28T15:37:41.182Z,4.03
2018-03-28T15:40:15.057Z,5.80
2018-03-28T15:42:42.844Z,4.00
2018-03-28T15:45:12.611Z,4.07
2018-03-28T15:47:40.143Z,5.83
2018-03-28T15:50:07.613Z,3.80
2018-03-28T15:52:35.876Z,5.10
2018-03-28T15:55:04.575Z,4.87
2018-03-28T15:57:32.533Z,5.03
2018-03-28T16:00:00.530Z,4.63
2018-03-28T16:02:29.102Z,6.93
2018-03-28T16:04:57.353Z,4.97
2018-03-28T16:07:24.814Z,4.20
2018-03-28T16:09:52.303Z,5.30
2018-03-28T16:12:23.433Z,5.60
2018-03-28T16:14:51.671Z,3.40
2018-03-28T16:17:19.138Z,3.33
2018-03-28T16:19:46.883Z,3.73
2018-03-28T16:22:14.338Z,5.80
2018-03-28T16:24:41.819Z,2.97
2018-03-28T16:27:09.558Z,3.67
2018-03-28T16:29:37.320Z,3.80
2018-03-28T16:32:04.793Z,2.50
2018-03-28T16:34:46.952Z,4.47
2018-03-28T16:37:14.440Z,4.90
2018-03-28T16:39:45.192Z,4.00
2018-03-28T16:42:12.654Z,4.43
2018-03-28T16:44:40.110Z,4.70
2018-03-28T16:47:07.843Z,2.37
2018-03-28T16:49:35.622Z,3.53
2018-03-28T16:52:07.339Z,4.80
2018-03-28T16:54:34.831Z,3.43
2018-03-28T16:57:02.285Z,3.63
2018-03-28T16:59:30.045Z,3.93
2018-03-28T17:01:57.505Z,4.70
2018-03-28T17:04:24.997Z,4.37
2018-03-28T17:06:52.898Z,3.23
2018-03-28T17:09:21.133Z,4.03
2018-03-28T17:11:48.642Z,2.43
2018-03-28T17:14:16.427Z,2.63
2018-03-28T17:16:44.601Z,2.53
2018-03-28T17:19:12.099Z,5.03
2018-03-28T17:21:39.547Z,4.87
2018-03-28T17:24:07.006Z,6.07
2018-03-28T17:26:34.468Z,4.47
2018-03-28T17:29:01.989Z,4.87
2018-03-28T17:31:29.503Z,4.57
2018-03-28T17:33:57.748Z,4.13
2018-03-28T17:36:25.203Z,4.60
2018-03-28T17:38:52.691Z,7.17
2018-03-28T17:41:20.949Z,4.83
2018-03-28T17:43:48.418Z,6.77
2018-03-28T17:46:15.899Z,5.07
2018-03-28T17:48:43.699Z,5.50
2018-03-28T17:51:11.167Z,4.93
2018-03-28T17:53:38.622Z,5.30
2018-03-28T17:56:06.087Z,3.47
2018-03-28T17:58:33.543Z,3.30
2018-03-28T18:01:01.013Z,6.73
2018-03-28T18:03:28.467Z,2.83
2018-03-28T18:05:55.928Z,6.87
2018-03-28T18:08:23.656Z,3.43
2018-03-28T18:10:51.174Z,6.57
2018-03-28T18:13:19.434Z,4.60
2018-03-28T18:15:47.254Z,3.03
2018-03-28T18:18:14.754Z,5.20
2018-03-28T18:20:43.091Z,4.77
2018-03-28T18:23:10.559Z,2.80
2018-03-28T18:25:38.048Z,4.37
2018-03-28T18:28:05.499Z,4.53
2018-03-28T18:30:32.958Z,4.37
2018-03-28T18:33:00.421Z,4.17
2018-03-28T18:35:27.867Z,6.27
2018-03-28T18:37:56.099Z,7.73
2018-03-28T18:40:23.557Z,4.57
2018-03-28T18:42:51.026Z,4.13
2018-03-28T18:45:18.487Z,4.03
2018-03-28T18:47:45.975Z,3.30
2018-03-28T18:50:13.418Z,3.10
2018-03-28T18:52:40.890Z,4.13
2018-03-28T18:55:08.350Z,4.30
2018-03-28T18:57:35.810Z,6.57
2018-03-28T19:00:07.250Z,4.70
2018-03-28T19:02:34.706Z,4.30
2018-03-28T19:05:02.170Z,5.93
2018-03-28T19:07:29.623Z,2.90
2018-03-28T19:09:57.087Z,4.07
2018-03-28T19:12:24.534Z,2.60
2018-03-28T19:14:52.214Z,2.70
2018-03-28T19:17:19.669Z,3.23
2018-03-28T19:19:47.126Z,6.33
2018-03-28T19:22:14.592Z,3.73
2018-03-28T19:24:42.053Z,3.17
2018-03-28T19:27:10.278Z,3.43
2018-03-28T19:29:37.803Z,2.63
2018-03-28T19:32:07.238Z,4.97
2018-03-28T19:34:50.797Z,3.07
2018-03-28T19:37:19.354Z,4.23
2018-03-28T19:39:46.906Z,2.93
2018-03-28T19:42:14.366Z,2.47
2018-03-28T19:44:41.822Z,2.60
2018-03-28T19:47:09.282Z,3.13
2018-03-28T19:49:36.737Z,3.33
2018-03-28T19:52:04.206Z,2.60
2018-03-28T19:54:31.664Z,3.30
2018-03-28T19:56:59.137Z,2.73
2018-03-28T19:59:26.599Z,3.70
2018-03-28T20:01:54.053Z,4.37
2018-03-28T20:04:21.726Z,2.90
2018-03-28T20:06:49.446Z,2.50
2018-03-28T20:09:16.907Z,2.83
2018-03-28T20:11:44.362Z,4.73
2018-03-28T20:14:11.829Z,3.17
2018-03-28T20:16:39.303Z,3.13
2018-03-28T20:19:07.037Z,2.93
2018-03-28T20:21:34.906Z,3.47
2018-03-28T20:24:02.504Z,4.77
2018-03-28T20:26:29.942Z,4.23
2018-03-28T20:28:57.695Z,3.77
2018-03-28T20:31:25.458Z,4.50
2018-03-28T20:33:52.922Z,3.87
2018-03-28T20:36:20.411Z,3.43
2018-03-28T20:38:47.862Z,4.60
2018-03-28T20:41:15.379Z,3.87
2018-03-28T20:43:42.852Z,3.87
2018-03-28T20:46:10.560Z,4.43
2018-03-28T20:48:39.009Z,3.67
2018-03-28T20:51:06.473Z,4.13
2018-03-28T20:53:33.922Z,4.03
2018-03-28T20:56:02.150Z,3.97
2018-03-28T20:58:30.654Z,4.50
2018-03-28T21:03:32.190Z,4.07
2018-03-28T21:05:59.652Z,3.33
2018-03-28T21:08:28.162Z,2.60
2018-03-28T21:10:55.929Z,2.50
2018-03-28T21:13:23.444Z,3.57
2018-03-28T21:15:50.890Z,3.00
2018-03-28T21:18:18.351Z,1.90
2018-03-28T21:20:45.829Z,2.93
2018-03-28T21:23:14.049Z,1.93
2018-03-28T21:25:41.515Z,2.17
2018-03-28T21:28:08.974Z,1.73
2018-03-28T21:30:36.421Z,3.00
2018-03-28T21:33:03.873Z,3.13
2018-03-28T21:35:31.332Z,2.63
2018-03-28T21:37:58.800Z,1.60
2018-03-28T21:40:26.258Z,1.60
2018-03-28T21:42:53.722Z,1.80
2018-03-28T21:45:21.398Z,1.73
2018-03-28T21:47:48.882Z,1.83
2018-03-28T21:50:17.090Z,2.67
2018-03-28T21:52:44.550Z,1.63
2018-03-28T21:55:12.001Z,1.87
2018-03-28T21:57:39.465Z,2.13
2018-03-28T22:00:08.142Z,1.63
2018-03-28T22:02:35.603Z,2.00
2018-03-28T22:05:03.366Z,2.67
2018-03-28T22:07:30.847Z,1.83
2018-03-28T22:09:58.301Z,2.20
2018-03-28T22:12:25.762Z,1.93
2018-03-28T22:14:53.239Z,2.07
2018-03-28T22:17:20.692Z,1.77
2018-03-28T22:19:48.203Z,3.63
2018-03-28T22:22:16.387Z,4.30
2018-03-28T22:24:43.847Z,1.70
2018-03-28T22:27:13.243Z,2.73
2018-03-28T22:29:40.693Z,2.27
2018-03-28T22:32:08.247Z,1.70
2018-03-28T22:34:35.706Z,1.80
2018-03-28T22:37:03.165Z,1.90
2018-03-28T22:39:31.378Z,1.60
2018-03-28T22:41:58.843Z,1.67
2018-03-28T22:44:26.519Z,1.83
2018-03-28T22:46:53.991Z,2.07
2018-03-28T22:49:22.210Z,1.50
2018-03-28T22:51:49.702Z,1.83
2018-03-28T22:54:17.158Z,3.20
2018-03-28T22:56:44.834Z,1.57
2018-03-28T22:59:12.290Z,3.07
2018-03-28T23:01:39.760Z,1.40
2018-03-28T23:04:08.278Z,1.40
2018-03-28T23:06:35.738Z,1.17
2018-03-28T23:09:03.220Z,1.53
2018-03-28T23:11:30.668Z,1.20
2018-03-28T23:13:58.133Z,1.20
2018-03-28T23:16:25.603Z,1.73
2018-03-28T23:18:53.327Z,0.90
2018-03-28T23:21:20.811Z,0.80
2018-03-28T23:23:48.329Z,2.17
2018-03-28T23:26:15.750Z,1.93
2018-03-28T23:28:43.252Z,1.20
2018-03-28T23:31:10.695Z,1.17
2018-03-28T23:33:38.168Z,1.40
2018-03-28T23:36:05.615Z,0.90
2018-03-28T23:38:33.105Z,1.10
2018-03-28T23:41:00.568Z,1.27
2018-03-28T23:43:28.031Z,0.83
2018-03-28T23:45:55.487Z,1.17
2018-03-28T23:48:22.946Z,0.63
2018-03-28T23:50:50.393Z,0.73
2018-03-28T23:53:18.130Z,2.67
2018-03-28T23:55:45.587Z,0.60
2018-03-28T23:58:13.059Z,0.60
